createdAt,value
2023-02-12T00:01:09.644Z,100049.02
2023-02-12T00:06:13.581Z,100052.67
2023-02-12T00:11:20.406Z,100056.46
2023-02-12T00:16:28.753Z,100064.48
2023-02-12T00:21:30.723Z,100068.33
2023-02-12T00:26:32.557Z,100071.65
2023-02-12T00:31:35.673Z,100071.82
2023-02-12T00:36:37.416Z,100074.48
2023-02-12T00:41:40.292Z,100077.48
2023-02-12T00:46:42.094Z,100069.77
2023-02-12T00:51:44.114Z,100075.30
2023-02-12T01:34:56.724Z,100107.48
2023-02-12T01:39:58.563Z,100115.99
2023-02-12T01:45:12.583Z,100117.98
2023-02-12T01:50:18.820Z,100122.30
2023-02-12T01:55:21.368Z,100130.13
2023-02-12T02:00:25.078Z,100128.16
2023-02-12T02:05:47.096Z,100141.30
2023-02-12T02:10:52.360Z,100138.61
2023-02-12T02:16:00.149Z,100140.63
2023-02-12T02:21:12.397Z,100146.61
2023-02-12T02:26:38.831Z,100154.80
2023-02-12T02:31:53.660Z,100156.96
2023-02-12T02:37:18.127Z,100155.70
2023-02-12T03:12:23.539Z,100201.48
2023-02-12T03:17:31.427Z,100201.60
2023-02-12T03:22:40.042Z,100215.95
2023-02-12T03:27:50.188Z,100223.33
2023-02-12T03:33:16.186Z,100241.91
2023-02-12T03:38:44.498Z,100254.89
2023-02-12T03:53:18.019Z,100278.89
2023-02-12T03:58:24.272Z,100280.42
2023-02-12T04:03:26.389Z,100286.66
2023-02-12T04:08:28.697Z,100295.44
2023-02-12T04:13:43.144Z,100302.61
2023-02-12T04:18:49.519Z,100313.96
2023-02-12T04:24:39.195Z,100320.34
2023-02-12T04:30:20.232Z,100322.85
2023-02-12T04:35:25.010Z,100326.56
2023-02-12T04:40:27.212Z,100337.77
2023-02-12T04:45:33.062Z,100340.86
2023-02-12T04:50:41.297Z,100345.17
2023-02-12T04:55:43.742Z,100354.87
2023-02-12T05:00:45.489Z,100360.79
2023-02-12T05:05:47.320Z,100364.73
2023-02-12T05:10:49.063Z,100367.73
2023-02-12T05:15:50.893Z,100385.48
2023-02-12T05:21:04.432Z,100387.06
2023-02-12T05:26:10.826Z,100387.98
2023-02-12T05:31:15.797Z,100394.38
2023-02-12T05:36:20.659Z,100401.05
2023-02-12T05:41:24.450Z,100409.45
2023-02-12T05:46:26.391Z,100419.55
2023-02-12T05:51:29.088Z,100422.95
2023-02-12T05:56:33.180Z,100431.71
2023-02-12T06:01:40.317Z,100438.64
2023-02-12T06:06:42.431Z,100446.73
2023-02-12T06:11:44.749Z,100452.14
2023-02-12T06:16:48.587Z,100461.36
2023-02-12T06:21:50.795Z,100482.20
2023-02-12T06:26:52.511Z,100484.98
2023-02-12T06:31:54.368Z,100492.95
2023-02-12T06:36:56.234Z,100500.85
2023-02-12T06:41:58.140Z,100510.86
2023-02-12T06:46:59.968Z,100513.58
2023-02-12T06:52:03.418Z,100516.50
2023-02-12T06:57:05.406Z,100521.76
2023-02-12T07:02:07.183Z,100526.60
2023-02-12T07:12:35.101Z,100534.46
2023-02-12T07:17:36.893Z,100532.52
2023-02-12T07:22:38.624Z,100537.92
2023-02-12T07:27:49.759Z,100537.52
2023-02-12T07:32:51.413Z,100552.67
2023-02-12T08:39:50.140Z,100630.27
2023-02-12T08:44:51.761Z,100635.33
2023-02-12T08:49:53.436Z,100639.61
2023-02-12T08:54:55.129Z,100646.23
2023-02-12T08:59:56.845Z,100650.63
2023-02-12T09:04:58.544Z,100655.34
2023-02-12T09:10:00.336Z,100666.85
2023-02-12T09:15:02.046Z,100666.84
2023-02-12T09:20:03.964Z,100669.55
2023-02-12T09:25:06.493Z,100672.84
2023-02-12T09:30:08.914Z,100680.05
2023-02-12T09:35:13.358Z,100685.98
2023-02-12T09:40:35.890Z,100695.57
2023-02-12T09:45:45.223Z,100705.44
2023-02-12T09:50:49.750Z,100707.65
2023-02-12T09:55:51.794Z,100705.02
2023-02-12T10:00:53.936Z,100708.65
2023-02-12T10:06:04.277Z,100707.32
2023-02-12T10:11:24.754Z,100707.73
2023-02-12T10:16:58.010Z,100716.61
2023-02-12T10:22:27.173Z,100723.36
2023-02-12T10:27:51.373Z,100724.50
2023-02-12T10:33:00.637Z,100730.70
2023-02-12T10:38:07.793Z,100731.84
2023-02-12T10:43:13.052Z,100733.56
2023-02-12T10:48:42.278Z,100735.79
2023-02-12T10:53:46.795Z,100730.89
2023-02-12T10:58:54.648Z,100727.13
2023-02-12T11:09:36.239Z,100727.94
2023-02-12T11:14:38.033Z,100730.20
2023-02-12T11:19:39.737Z,100727.42
2023-02-12T11:24:41.419Z,100726.52
2023-02-12T11:29:44.586Z,100730.56
2023-02-12T11:35:14.141Z,100727.13
2023-02-12T11:40:22.285Z,100722.92
2023-02-12T11:45:34.190Z,100719.90
2023-02-12T11:50:36.030Z,100725.23
2023-02-12T11:55:41.143Z,100723.87
2023-02-12T12:01:00.910Z,100719.34
2023-02-12T12:06:33.455Z,100716.73
2023-02-12T12:11:46.874Z,100715.98
2023-02-12T12:17:16.860Z,100722.38
2023-02-12T12:22:52.098Z,100713.56
2023-02-12T12:28:03.167Z,100721.83
2023-02-12T12:33:10.814Z,100724.38
2023-02-12T12:38:27.125Z,100729.02
2023-02-12T12:43:44.292Z,100721.05
2023-02-12T12:49:15.620Z,100724.97
2023-02-12T12:54:51.613Z,100723.38
2023-02-12T13:00:20.984Z,100726.41
2023-02-12T13:05:42.166Z,100730.21
2023-02-12T13:11:22.450Z,100730.69
2023-02-12T13:16:34.599Z,100722.23
2023-02-12T13:21:42.939Z,100716.24
2023-02-12T13:26:47.541Z,100717.13
2023-02-12T13:31:55.045Z,100718.11
2023-02-12T13:37:00.916Z,100712.50
2023-02-12T13:42:16.953Z,100715.89
2023-02-12T13:47:33.306Z,100714.04
2023-02-12T13:52:56.628Z,100718.96
2023-02-12T13:58:40.145Z,100720.11
2023-02-12T14:03:41.859Z,100729.05
2023-02-12T14:08:47.979Z,100737.83
2023-02-12T14:13:54.857Z,100735.48
2023-02-12T14:19:34.587Z,100736.45
2023-02-12T14:24:36.318Z,100726.47
2023-02-12T14:29:38.237Z,100731.09
2023-02-12T14:34:40.137Z,100733.73
2023-02-12T14:39:41.849Z,100731.02
2023-02-12T14:45:11.211Z,100728.39
2023-02-12T14:50:23.013Z,100727.35
2023-02-12T14:55:36.789Z,100735.98
2023-02-12T15:00:41.532Z,100741.96
2023-02-12T15:05:50.949Z,100745.37
2023-02-12T15:10:59.591Z,100751.83
2023-02-12T15:16:13.550Z,100747.55
2023-02-12T15:21:23.377Z,100743.24
2023-02-12T15:26:27.422Z,100746.88
2023-02-12T15:31:38.733Z,100748.02
2023-02-12T15:36:45.887Z,100749.29
2023-02-12T15:41:48.889Z,100755.34
2023-02-12T15:46:54.694Z,100751.59
2023-02-12T15:51:57.719Z,100754.85
2023-02-12T15:57:00.520Z,100750.68
2023-02-12T16:02:03.644Z,100750.33
2023-02-12T16:07:07.779Z,100752.71
2023-02-12T16:12:14.740Z,100755.77
2023-02-12T16:17:25.587Z,100756.52
2023-02-12T16:22:48.755Z,100764.56
2023-02-12T16:28:04.535Z,100770.63
2023-02-12T16:33:41.062Z,100768.73
2023-02-12T16:38:44.635Z,100765.61
2023-02-12T16:44:01.543Z,100771.84
2023-02-12T16:49:03.997Z,100779.50
2023-02-12T16:54:24.366Z,100783.29
2023-02-12T16:59:26.541Z,100789.27
2023-02-12T17:04:28.670Z,100789.55
2023-02-12T17:09:30.433Z,100801.34
2023-02-12T17:14:32.136Z,100800.70
2023-02-12T17:19:34.179Z,100807.63
2023-02-12T17:24:36.047Z,100806.64
2023-02-12T17:29:37.713Z,100809.89
2023-02-12T17:34:47.997Z,100808.91
2023-02-12T17:39:50.678Z,100804.13
2023-02-12T17:44:52.894Z,100802.79
2023-02-12T17:49:54.586Z,100797.36
2023-02-12T17:54:56.329Z,100802.27
2023-02-12T17:59:58.692Z,100792.83
2023-02-12T18:05:00.320Z,100789.13
2023-02-12T18:10:02.098Z,100787.36
2023-02-12T18:15:05.483Z,100785.90
2023-02-12T18:20:08.166Z,100782.40
2023-02-12T18:25:10.884Z,100785.07
2023-02-12T18:30:14.012Z,100781.35
2023-02-12T18:35:15.887Z,100785.86
2023-02-12T18:40:17.725Z,100781.29
2023-02-12T18:45:19.607Z,100782.91
2023-02-12T18:50:21.482Z,100778.27
2023-02-12T18:55:23.122Z,100769.96
2023-02-12T19:00:24.928Z,100766.45
2023-02-12T19:05:26.697Z,100767.14
2023-02-12T19:10:28.564Z,100769.58
2023-02-12T19:15:30.402Z,100772.45
2023-02-12T19:20:33.764Z,100778.88
2023-02-12T19:25:39.841Z,100779.81
2023-02-12T19:30:42.116Z,100785.64
2023-02-12T19:35:46.194Z,100787.54
2023-02-12T19:40:47.875Z,100788.01
2023-02-12T19:45:49.785Z,100790.23
2023-02-12T19:50:51.684Z,100789.80
2023-02-12T19:55:53.983Z,100792.51
2023-02-12T20:00:56.033Z,100787.72
2023-02-12T20:06:03.439Z,100784.79
2023-02-12T20:11:07.222Z,100788.09
2023-02-12T20:16:10.554Z,100781.31
2023-02-12T20:21:19.472Z,100781.17
2023-02-12T20:26:21.630Z,100782.03
2023-02-12T20:31:26.508Z,100787.89
2023-02-12T20:36:32.821Z,100792.34
2023-02-12T20:41:37.396Z,100792.64
2023-02-12T20:46:42.572Z,100792.49
2023-02-12T20:51:44.837Z,100791.92
2023-02-12T20:56:48.587Z,100795.23
2023-02-12T21:01:50.426Z,100796.55
2023-02-12T21:06:52.315Z,100797.13
2023-02-12T21:11:56.145Z,100797.15
2023-02-12T21:16:58.079Z,100801.48
2023-02-12T21:21:59.914Z,100810.05
2023-02-12T21:27:01.690Z,100813.81
2023-02-12T21:32:03.740Z,100806.99
2023-02-12T21:37:05.678Z,100805.78
2023-02-12T21:42:07.457Z,100802.07
2023-02-12T21:47:09.347Z,100800.22
2023-02-12T21:52:11.629Z,100802.22
2023-02-12T21:57:17.995Z,100804.13
2023-02-12T22:02:19.852Z,100798.04
2023-02-12T22:07:21.765Z,100799.33
2023-02-12T22:12:26.285Z,100797.46
2023-02-12T22:17:28.022Z,100795.66
2023-02-12T22:22:30.171Z,100794.04
2023-02-12T22:27:32.957Z,100786.34
2023-02-12T22:32:34.946Z,100787.95
2023-02-12T22:37:40.691Z,100784.59
2023-02-12T22:42:42.442Z,100778.59
2023-02-12T22:47:44.216Z,100775.45
2023-02-12T22:52:46.046Z,100774.42
2023-02-12T22:57:47.810Z,100782.70
2023-02-12T23:02:49.604Z,100789.48
2023-02-12T23:07:51.362Z,100788.35
2023-02-12T23:12:53.083Z,100789.39
2023-02-12T23:17:54.865Z,100787.40
2023-02-12T23:22:56.608Z,100783.01
2023-02-12T23:27:58.322Z,100779.58
2023-02-12T23:33:00.199Z,100774.04
2023-02-12T23:38:04.376Z,100771.94
2023-02-12T23:43:06.182Z,100768.13
2023-02-12T23:48:07.946Z,100765.61
2023-02-12T23:53:12.755Z,100767.94
2023-02-12T23:58:14.423Z,100767.00
